sensor_id;sensor_type;location;lat;lon;timestamp;P1;durP1;ratioP1;P2;durP2;ratioP2
19804;SDS011;10062;51.052;13.756;2023-08-07T00:01:37;5.50;;;2.20;;
19804;SDS011;10062;51.052;13.756;2023-08-07T00:04:09;3.80;;;2.10;;
19804;SDS011;10062;51.052;13.756;2023-08-07T00:06:40;5.20;;;2.33;;
19804;SDS011;10062;51.052;13.756;2023-08-07T00:09:12;3.80;;;2.30;;
19804;SDS011;10062;51.052;13.756;2023-08-07T00:11:44;3.37;;;2.40;;
19804;SDS011;10062;51.052;13.756;2023-08-07T00:14:16;3.60;;;2.30;;
19804;SDS011;10062;51.052;13.756;2023-08-07T00:16:49;3.70;;;2.10;;
19804;SDS011;10062;51.052;13.756;2023-08-07T00:19:20;6.27;;;2.43;;
19804;SDS011;10062;51.052;13.756;2023-08-07T00:21:52;3.60;;;2.17;;
19804;SDS011;10062;51.052;13.756;2023-08-07T00:24:24;4.00;;;2.20;;
19804;SDS011;10062;51.052;13.756;2023-08-07T00:26:56;3.60;;;2.23;;
19804;SDS011;10062;51.052;13.756;2023-08-07T00:29:27;5.83;;;2.33;;
19804;SDS011;10062;51.052;13.756;2023-08-07T00:32:01;5.57;;;2.20;;
19804;SDS011;10062;51.052;13.756;2023-08-07T00:34:32;4.03;;;2.10;;
19804;SDS011;10062;51.052;13.756;2023-08-07T00:37:04;3.23;;;1.70;;
19804;SDS011;10062;51.052;13.756;2023-08-07T00:39:37;3.23;;;1.87;;
19804;SDS011;10062;51.052;13.756;2023-08-07T00:42:09;6.10;;;2.17;;
19804;SDS011;10062;51.052;13.756;2023-08-07T00:44:41;8.47;;;2.23;;
19804;SDS011;10062;51.052;13.756;2023-08-07T00:47:14;5.67;;;1.80;;
19804;SDS011;10062;51.052;13.756;2023-08-07T00:49:46;3.73;;;2.13;;
19804;SDS011;10062;51.052;13.756;2023-08-07T00:52:19;5.10;;;2.60;;
19804;SDS011;10062;51.052;13.756;2023-08-07T00:54:50;3.07;;;2.07;;
19804;SDS011;10062;51.052;13.756;2023-08-07T00:57:22;6.17;;;2.50;;
19804;SDS011;10062;51.052;13.756;2023-08-07T00:59:55;6.60;;;3.10;;
19804;SDS011;10062;51.052;13.756;2023-08-07T01:02:28;4.93;;;2.77;;
19804;SDS011;10062;51.052;13.756;2023-08-07T01:05:00;4.33;;;2.87;;
19804;SDS011;10062;51.052;13.756;2023-08-07T01:07:32;4.20;;;2.80;;
19804;SDS011;10062;51.052;13.756;2023-08-07T01:10:04;4.93;;;3.10;;
19804;SDS011;10062;51.052;13.756;2023-08-07T01:12:40;5.50;;;3.60;;
19804;SDS011;10062;51.052;13.756;2023-08-07T01:15:17;5.40;;;3.40;;
19804;SDS011;10062;51.052;13.756;2023-08-07T01:17:54;5.13;;;2.97;;
19804;SDS011;10062;51.052;13.756;2023-08-07T01:20:27;4.43;;;2.97;;
19804;SDS011;10062;51.052;13.756;2023-08-07T01:23:00;6.40;;;3.13;;
19804;SDS011;10062;51.052;13.756;2023-08-07T01:25:32;7.37;;;3.20;;
19804;SDS011;10062;51.052;13.756;2023-08-07T01:28:11;4.27;;;2.83;;
19804;SDS011;10062;51.052;13.756;2023-08-07T01:30:49;6.67;;;3.13;;
19804;SDS011;10062;51.052;13.756;2023-08-07T01:33:27;4.57;;;2.90;;
19804;SDS011;10062;51.052;13.756;2023-08-07T01:36:05;5.47;;;3.00;;
19804;SDS011;10062;51.052;13.756;2023-08-07T01:38:39;5.67;;;3.00;;
19804;SDS011;10062;51.052;13.756;2023-08-07T01:41:12;5.70;;;2.80;;
19804;SDS011;10062;51.052;13.756;2023-08-07T01:43:44;4.67;;;2.70;;
19804;SDS011;10062;51.052;13.756;2023-08-07T01:46:17;9.40;;;4.47;;
19804;SDS011;10062;51.052;13.756;2023-08-07T01:48:49;7.17;;;3.50;;
19804;SDS011;10062;51.052;13.756;2023-08-07T01:51:21;5.20;;;2.90;;
19804;SDS011;10062;51.052;13.756;2023-08-07T01:53:55;5.77;;;2.70;;
19804;SDS011;10062;51.052;13.756;2023-08-07T01:56:26;4.40;;;3.17;;
19804;SDS011;10062;51.052;13.756;2023-08-07T01:58:58;4.13;;;2.80;;
19804;SDS011;10062;51.052;13.756;2023-08-07T02:01:30;5.17;;;3.30;;
19804;SDS011;10062;51.052;13.756;2023-08-07T02:04:02;7.13;;;3.40;;
19804;SDS011;10062;51.052;13.756;2023-08-07T02:06:34;6.20;;;3.40;;
19804;SDS011;10062;51.052;13.756;2023-08-07T02:09:07;4.30;;;3.13;;
19804;SDS011;10062;51.052;13.756;2023-08-07T02:11:39;5.73;;;3.77;;
19804;SDS011;10062;51.052;13.756;2023-08-07T02:14:10;7.37;;;3.67;;
19804;SDS011;10062;51.052;13.756;2023-08-07T02:16:42;7.30;;;4.10;;
19804;SDS011;10062;51.052;13.756;2023-08-07T02:19:14;5.10;;;3.70;;
19804;SDS011;10062;51.052;13.756;2023-08-07T02:21:46;5.20;;;3.87;;
19804;SDS011;10062;51.052;13.756;2023-08-07T02:24:19;6.30;;;4.13;;
19804;SDS011;10062;51.052;13.756;2023-08-07T02:26:51;7.83;;;4.60;;
19804;SDS011;10062;51.052;13.756;2023-08-07T02:29:23;7.77;;;4.13;;
19804;SDS011;10062;51.052;13.756;2023-08-07T02:31:54;5.77;;;4.30;;
19804;SDS011;10062;51.052;13.756;2023-08-07T02:34:26;5.87;;;4.60;;
19804;SDS011;10062;51.052;13.756;2023-08-07T02:36:58;6.43;;;3.40;;
19804;SDS011;10062;51.052;13.756;2023-08-07T02:39:31;7.23;;;3.90;;
19804;SDS011;10062;51.052;13.756;2023-08-07T02:42:03;6.90;;;4.30;;
19804;SDS011;10062;51.052;13.756;2023-08-07T02:44:35;9.00;;;4.80;;
19804;SDS011;10062;51.052;13.756;2023-08-07T02:47:07;6.30;;;3.63;;
19804;SDS011;10062;51.052;13.756;2023-08-07T02:49:39;7.87;;;5.17;;
19804;SDS011;10062;51.052;13.756;2023-08-07T02:52:11;7.17;;;4.73;;
19804;SDS011;10062;51.052;13.756;2023-08-07T02:54:44;8.23;;;4.40;;
19804;SDS011;10062;51.052;13.756;2023-08-07T02:57:16;10.00;;;4.53;;
19804;SDS011;10062;51.052;13.756;2023-08-07T02:59:48;6.43;;;4.60;;
19804;SDS011;10062;51.052;13.756;2023-08-07T03:02:20;10.67;;;4.27;;
19804;SDS011;10062;51.052;13.756;2023-08-07T03:04:52;7.23;;;4.87;;
19804;SDS011;10062;51.052;13.756;2023-08-07T03:07:24;6.97;;;4.60;;
19804;SDS011;10062;51.052;13.756;2023-08-07T03:09:58;9.00;;;4.40;;
19804;SDS011;10062;51.052;13.756;2023-08-07T03:12:31;8.67;;;4.73;;
19804;SDS011;10062;51.052;13.756;2023-08-07T03:15:03;6.10;;;3.97;;
19804;SDS011;10062;51.052;13.756;2023-08-07T03:17:35;6.17;;;4.17;;
19804;SDS011;10062;51.052;13.756;2023-08-07T03:20:07;7.77;;;4.57;;
19804;SDS011;10062;51.052;13.756;2023-08-07T03:22:40;8.13;;;3.90;;
19804;SDS011;10062;51.052;13.756;2023-08-07T03:25:14;5.33;;;3.00;;
19804;SDS011;10062;51.052;13.756;2023-08-07T03:27:45;5.50;;;2.70;;
19804;SDS011;10062;51.052;13.756;2023-08-07T03:30:17;6.30;;;2.73;;
19804;SDS011;10062;51.052;13.756;2023-08-07T03:32:50;6.33;;;2.63;;
19804;SDS011;10062;51.052;13.756;2023-08-07T03:35:22;7.83;;;2.97;;
19804;SDS011;10062;51.052;13.756;2023-08-07T03:37:54;4.13;;;2.60;;
19804;SDS011;10062;51.052;13.756;2023-08-07T03:40:27;5.77;;;2.50;;
19804;SDS011;10062;51.052;13.756;2023-08-07T03:42:59;5.07;;;2.30;;
19804;SDS011;10062;51.052;13.756;2023-08-07T03:45:31;4.97;;;2.93;;
19804;SDS011;10062;51.052;13.756;2023-08-07T03:48:02;5.43;;;2.53;;
19804;SDS011;10062;51.052;13.756;2023-08-07T03:50:34;5.77;;;2.70;;
19804;SDS011;10062;51.052;13.756;2023-08-07T03:53:08;5.03;;;2.43;;
19804;SDS011;10062;51.052;13.756;2023-08-07T03:55:50;5.70;;;2.57;;
19804;SDS011;10062;51.052;13.756;2023-08-07T03:58:25;6.00;;;2.70;;
19804;SDS011;10062;51.052;13.756;2023-08-07T04:00:57;4.53;;;2.40;;
19804;SDS011;10062;51.052;13.756;2023-08-07T04:03:29;4.33;;;2.53;;
19804;SDS011;10062;51.052;13.756;2023-08-07T04:06:03;5.10;;;3.17;;
19804;SDS011;10062;51.052;13.756;2023-08-07T04:08:35;5.93;;;2.87;;
19804;SDS011;10062;51.052;13.756;2023-08-07T04:11:08;4.23;;;2.10;;
19804;SDS011;10062;51.052;13.756;2023-08-07T04:13:40;4.20;;;2.37;;
19804;SDS011;10062;51.052;13.756;2023-08-07T04:16:12;4.90;;;2.50;;
19804;SDS011;10062;51.052;13.756;2023-08-07T04:18:44;4.50;;;2.53;;
19804;SDS011;10062;51.052;13.756;2023-08-07T04:21:16;4.80;;;2.93;;
19804;SDS011;10062;51.052;13.756;2023-08-07T04:23:47;7.03;;;3.67;;
19804;SDS011;10062;51.052;13.756;2023-08-07T04:26:20;5.43;;;3.30;;
19804;SDS011;10062;51.052;13.756;2023-08-07T04:28:52;5.67;;;3.47;;
19804;SDS011;10062;51.052;13.756;2023-08-07T04:31:24;5.70;;;2.77;;
19804;SDS011;10062;51.052;13.756;2023-08-07T04:33:56;6.33;;;4.03;;
19804;SDS011;10062;51.052;13.756;2023-08-07T04:36:28;8.67;;;4.90;;
19804;SDS011;10062;51.052;13.756;2023-08-07T04:39:00;7.60;;;3.70;;
19804;SDS011;10062;51.052;13.756;2023-08-07T04:41:33;6.80;;;4.63;;
19804;SDS011;10062;51.052;13.756;2023-08-07T04:44:04;8.03;;;4.13;;
19804;SDS011;10062;51.052;13.756;2023-08-07T04:46:36;7.93;;;4.03;;
19804;SDS011;10062;51.052;13.756;2023-08-07T04:49:08;6.37;;;4.50;;
19804;SDS011;10062;51.052;13.756;2023-08-07T04:51:40;14.73;;;4.77;;
19804;SDS011;10062;51.052;13.756;2023-08-07T04:54:11;9.13;;;5.43;;
19804;SDS011;10062;51.052;13.756;2023-08-07T04:56:44;8.70;;;6.10;;
19804;SDS011;10062;51.052;13.756;2023-08-07T04:59:16;11.13;;;5.40;;
19804;SDS011;10062;51.052;13.756;2023-08-07T05:01:48;5.87;;;4.30;;
19804;SDS011;10062;51.052;13.756;2023-08-07T05:04:20;10.97;;;6.53;;
19804;SDS011;10062;51.052;13.756;2023-08-07T05:06:51;9.73;;;5.73;;
19804;SDS011;10062;51.052;13.756;2023-08-07T05:09:23;10.83;;;6.03;;
19804;SDS011;10062;51.052;13.756;2023-08-07T05:11:56;8.23;;;6.00;;
19804;SDS011;10062;51.052;13.756;2023-08-07T05:14:28;11.33;;;6.00;;
19804;SDS011;10062;51.052;13.756;2023-08-07T05:17:01;8.83;;;5.80;;
19804;SDS011;10062;51.052;13.756;2023-08-07T05:19:32;10.53;;;6.37;;
19804;SDS011;10062;51.052;13.756;2023-08-07T05:22:04;9.37;;;6.17;;
19804;SDS011;10062;51.052;13.756;2023-08-07T05:24:36;8.23;;;4.97;;
19804;SDS011;10062;51.052;13.756;2023-08-07T05:27:11;8.80;;;5.83;;
19804;SDS011;10062;51.052;13.756;2023-08-07T05:29:42;7.63;;;4.90;;
19804;SDS011;10062;51.052;13.756;2023-08-07T05:32:14;9.60;;;5.33;;
19804;SDS011;10062;51.052;13.756;2023-08-07T05:34:46;10.57;;;4.90;;
19804;SDS011;10062;51.052;13.756;2023-08-07T05:37:18;9.17;;;5.40;;
19804;SDS011;10062;51.052;13.756;2023-08-07T05:39:50;9.33;;;4.80;;
19804;SDS011;10062;51.052;13.756;2023-08-07T05:42:23;7.47;;;5.10;;
19804;SDS011;10062;51.052;13.756;2023-08-07T05:44:55;8.03;;;5.07;;
19804;SDS011;10062;51.052;13.756;2023-08-07T05:47:26;7.00;;;5.23;;
19804;SDS011;10062;51.052;13.756;2023-08-07T05:49:58;6.20;;;4.37;;
19804;SDS011;10062;51.052;13.756;2023-08-07T05:52:30;14.30;;;8.30;;
19804;SDS011;10062;51.052;13.756;2023-08-07T05:55:02;9.17;;;6.17;;
19804;SDS011;10062;51.052;13.756;2023-08-07T05:57:36;16.10;;;10.60;;
19804;SDS011;10062;51.052;13.756;2023-08-07T06:00:08;7.77;;;5.10;;
19804;SDS011;10062;51.052;13.756;2023-08-07T06:02:44;7.57;;;4.10;;
19804;SDS011;10062;51.052;13.756;2023-08-07T06:05:16;11.50;;;4.20;;
19804;SDS011;10062;51.052;13.756;2023-08-07T06:07:48;10.13;;;3.73;;
19804;SDS011;10062;51.052;13.756;2023-08-07T06:10:19;6.17;;;3.67;;
19804;SDS011;10062;51.052;13.756;2023-08-07T06:12:52;7.40;;;3.90;;
19804;SDS011;10062;51.052;13.756;2023-08-07T06:15:24;5.63;;;3.27;;
19804;SDS011;10062;51.052;13.756;2023-08-07T06:17:57;8.97;;;3.63;;
19804;SDS011;10062;51.052;13.756;2023-08-07T06:20:29;4.37;;;3.13;;
19804;SDS011;10062;51.052;13.756;2023-08-07T06:23:01;7.20;;;3.73;;
19804;SDS011;10062;51.052;13.756;2023-08-07T06:25:32;6.20;;;3.13;;
19804;SDS011;10062;51.052;13.756;2023-08-07T06:28:06;6.67;;;3.37;;
19804;SDS011;10062;51.052;13.756;2023-08-07T06:30:38;4.57;;;3.20;;
19804;SDS011;10062;51.052;13.756;2023-08-07T06:33:10;18.27;;;4.50;;
19804;SDS011;10062;51.052;13.756;2023-08-07T06:35:41;4.57;;;3.07;;
19804;SDS011;10062;51.052;13.756;2023-08-07T06:38:13;4.80;;;3.20;;
19804;SDS011;10062;51.052;13.756;2023-08-07T06:40:45;8.03;;;2.97;;
19804;SDS011;10062;51.052;13.756;2023-08-07T06:43:18;7.90;;;3.20;;
19804;SDS011;10062;51.052;13.756;2023-08-07T06:45:50;4.77;;;2.93;;
19804;SDS011;10062;51.052;13.756;2023-08-07T06:48:21;7.23;;;2.77;;
19804;SDS011;10062;51.052;13.756;2023-08-07T06:50:53;8.87;;;2.40;;
19804;SDS011;10062;51.052;13.756;2023-08-07T06:53:25;4.87;;;2.73;;
19804;SDS011;10062;51.052;13.756;2023-08-07T06:55:57;3.80;;;2.93;;
19804;SDS011;10062;51.052;13.756;2023-08-07T06:58:30;7.30;;;2.77;;
19804;SDS011;10062;51.052;13.756;2023-08-07T07:01:02;4.77;;;2.40;;
19804;SDS011;10062;51.052;13.756;2023-08-07T07:03:33;4.00;;;2.27;;
19804;SDS011;10062;51.052;13.756;2023-08-07T07:06:05;6.73;;;2.60;;
19804;SDS011;10062;51.052;13.756;2023-08-07T07:08:37;7.07;;;2.70;;
19804;SDS011;10062;51.052;13.756;2023-08-07T07:11:09;3.60;;;2.20;;
19804;SDS011;10062;51.052;13.756;2023-08-07T07:13:43;4.60;;;2.60;;
19804;SDS011;10062;51.052;13.756;2023-08-07T07:16:15;5.20;;;3.00;;
19804;SDS011;10062;51.052;13.756;2023-08-07T07:18:46;3.80;;;2.20;;
19804;SDS011;10062;51.052;13.756;2023-08-07T07:21:18;4.17;;;2.00;;
19804;SDS011;10062;51.052;13.756;2023-08-07T07:23:51;4.63;;;1.97;;
19804;SDS011;10062;51.052;13.756;2023-08-07T07:26:23;3.50;;;2.00;;
19804;SDS011;10062;51.052;13.756;2023-08-07T07:28:56;4.03;;;1.90;;
19804;SDS011;10062;51.052;13.756;2023-08-07T07:31:28;4.67;;;2.13;;
19804;SDS011;10062;51.052;13.756;2023-08-07T07:34:00;5.07;;;2.57;;
19804;SDS011;10062;51.052;13.756;2023-08-07T07:36:32;7.47;;;2.47;;
19804;SDS011;10062;51.052;13.756;2023-08-07T07:39:04;5.70;;;2.00;;
19804;SDS011;10062;51.052;13.756;2023-08-07T07:41:36;3.37;;;1.93;;
19804;SDS011;10062;51.052;13.756;2023-08-07T07:44:09;5.93;;;1.87;;
19804;SDS011;10062;51.052;13.756;2023-08-07T07:46:41;3.47;;;1.50;;
19804;SDS011;10062;51.052;13.756;2023-08-07T07:49:13;3.53;;;1.87;;
19804;SDS011;10062;51.052;13.756;2023-08-07T07:51:45;7.20;;;1.90;;
19804;SDS011;10062;51.052;13.756;2023-08-07T07:54:17;2.97;;;1.43;;
19804;SDS011;10062;51.052;13.756;2023-08-07T07:56:49;5.07;;;1.70;;
19804;SDS011;10062;51.052;13.756;2023-08-07T07:59:22;6.33;;;1.83;;
19804;SDS011;10062;51.052;13.756;2023-08-07T08:01:54;2.70;;;1.50;;
19804;SDS011;10062;51.052;13.756;2023-08-07T08:04:26;3.47;;;1.60;;
19804;SDS011;10062;51.052;13.756;2023-08-07T08:06:58;3.17;;;1.20;;
19804;SDS011;10062;51.052;13.756;2023-08-07T08:09:30;5.47;;;1.60;;
19804;SDS011;10062;51.052;13.756;2023-08-07T08:12:01;2.57;;;1.40;;
19804;SDS011;10062;51.052;13.756;2023-08-07T08:14:35;3.00;;;1.40;;
19804;SDS011;10062;51.052;13.756;2023-08-07T08:17:07;4.33;;;1.40;;
19804;SDS011;10062;51.052;13.756;2023-08-07T08:19:39;4.17;;;1.27;;
19804;SDS011;10062;51.052;13.756;2023-08-07T08:22:10;3.07;;;1.30;;
19804;SDS011;10062;51.052;13.756;2023-08-07T08:24:42;1.70;;;1.03;;
19804;SDS011;10062;51.052;13.756;2023-08-07T08:27:14;1.90;;;1.17;;
19804;SDS011;10062;51.052;13.756;2023-08-07T08:29:48;3.07;;;1.20;;
19804;SDS011;10062;51.052;13.756;2023-08-07T08:32:20;2.20;;;1.20;;
19804;SDS011;10062;51.052;13.756;2023-08-07T08:34:52;3.60;;;1.50;;
19804;SDS011;10062;51.052;13.756;2023-08-07T08:37:23;2.17;;;1.20;;
19804;SDS011;10062;51.052;13.756;2023-08-07T08:39:55;3.53;;;1.30;;
19804;SDS011;10062;51.052;13.756;2023-08-07T08:42:27;3.23;;;1.57;;
19804;SDS011;10062;51.052;13.756;2023-08-07T08:45:00;3.00;;;1.10;;
19804;SDS011;10062;51.052;13.756;2023-08-07T08:47:33;3.60;;;1.10;;
19804;SDS011;10062;51.052;13.756;2023-08-07T08:50:07;2.87;;;1.10;;
19804;SDS011;10062;51.052;13.756;2023-08-07T08:52:42;2.47;;;1.20;;
19804;SDS011;10062;51.052;13.756;2023-08-07T08:55:15;4.40;;;1.10;;
19804;SDS011;10062;51.052;13.756;2023-08-07T08:57:47;3.65;;;1.30;;
19804;SDS011;10062;51.052;13.756;2023-08-07T09:00:21;2.22;;;1.05;;
19804;SDS011;10062;51.052;13.756;2023-08-07T09:02:55;4.60;;;2.65;;
19804;SDS011;10062;51.052;13.756;2023-08-07T09:05:28;5.35;;;2.10;;
19804;SDS011;10062;51.052;13.756;2023-08-07T09:08:01;3.20;;;1.50;;
19804;SDS011;10062;51.052;13.756;2023-08-07T09:10:33;2.25;;;1.23;;
19804;SDS011;10062;51.052;13.756;2023-08-07T09:13:14;3.58;;;1.20;;
19804;SDS011;10062;51.052;13.756;2023-08-07T09:15:53;4.40;;;1.30;;
19804;SDS011;10062;51.052;13.756;2023-08-07T09:18:25;4.67;;;1.13;;
19804;SDS011;10062;51.052;13.756;2023-08-07T09:20:57;2.13;;;1.00;;
19804;SDS011;10062;51.052;13.756;2023-08-07T09:23:30;1.40;;;0.87;;
19804;SDS011;10062;51.052;13.756;2023-08-07T09:26:03;1.65;;;0.80;;
19804;SDS011;10062;51.052;13.756;2023-08-07T09:28:35;1.92;;;0.90;;
19804;SDS011;10062;51.052;13.756;2023-08-07T09:31:08;2.47;;;1.10;;
19804;SDS011;10062;51.052;13.756;2023-08-07T09:33:46;2.53;;;1.08;;
19804;SDS011;10062;51.052;13.756;2023-08-07T09:36:19;1.63;;;0.82;;
19804;SDS011;10062;51.052;13.756;2023-08-07T09:38:50;2.00;;;1.08;;
19804;SDS011;10062;51.052;13.756;2023-08-07T09:41:22;3.88;;;1.00;;
19804;SDS011;10062;51.052;13.756;2023-08-07T09:43:54;2.90;;;1.20;;
19804;SDS011;10062;51.052;13.756;2023-08-07T09:46:27;3.53;;;1.02;;
19804;SDS011;10062;51.052;13.756;2023-08-07T09:49:04;2.25;;;1.20;;
19804;SDS011;10062;51.052;13.756;2023-08-07T09:51:42;1.38;;;0.90;;
19804;SDS011;10062;51.052;13.756;2023-08-07T09:54:14;4.85;;;1.10;;
19804;SDS011;10062;51.052;13.756;2023-08-07T09:56:46;5.20;;;1.27;;
19804;SDS011;10062;51.052;13.756;2023-08-07T09:59:18;1.73;;;1.00;;
19804;SDS011;10062;51.052;13.756;2023-08-07T10:01:51;1.13;;;0.65;;
19804;SDS011;10062;51.052;13.756;2023-08-07T10:04:24;3.55;;;0.80;;
19804;SDS011;10062;51.052;13.756;2023-08-07T10:06:57;2.85;;;1.02;;
19804;SDS011;10062;51.052;13.756;2023-08-07T10:09:30;1.92;;;1.08;;
19804;SDS011;10062;51.052;13.756;2023-08-07T10:12:03;1.80;;;0.95;;
19804;SDS011;10062;51.052;13.756;2023-08-07T10:14:36;3.63;;;1.00;;
19804;SDS011;10062;51.052;13.756;2023-08-07T10:17:09;2.23;;;1.00;;
19804;SDS011;10062;51.052;13.756;2023-08-07T10:19:41;2.67;;;1.20;;
19804;SDS011;10062;51.052;13.756;2023-08-07T10:22:14;4.60;;;1.40;;
19804;SDS011;10062;51.052;13.756;2023-08-07T10:24:47;2.70;;;1.13;;
19804;SDS011;10062;51.052;13.756;2023-08-07T10:27:20;4.03;;;0.90;;
19804;SDS011;10062;51.052;13.756;2023-08-07T10:29:54;2.63;;;1.30;;
19804;SDS011;10062;51.052;13.756;2023-08-07T10:32:30;2.17;;;0.90;;
19804;SDS011;10062;51.052;13.756;2023-08-07T10:35:04;2.77;;;1.00;;
19804;SDS011;10062;51.052;13.756;2023-08-07T10:37:40;6.17;;;3.90;;
19804;SDS011;10062;51.052;13.756;2023-08-07T10:40:12;4.17;;;1.60;;
19804;SDS011;10062;51.052;13.756;2023-08-07T10:42:57;2.17;;;1.10;;
19804;SDS011;10062;51.052;13.756;2023-08-07T10:45:30;3.70;;;1.20;;
19804;SDS011;10062;51.052;13.756;2023-08-07T10:48:07;5.27;;;1.50;;
19804;SDS011;10062;51.052;13.756;2023-08-07T10:50:49;4.17;;;0.90;;
19804;SDS011;10062;51.052;13.756;2023-08-07T10:53:28;10.10;;;5.22;;
19804;SDS011;10062;51.052;13.756;2023-08-07T10:56:01;6.97;;;2.83;;
19804;SDS011;10062;51.052;13.756;2023-08-07T10:58:34;1.87;;;1.10;;
19804;SDS011;10062;51.052;13.756;2023-08-07T11:01:19;3.53;;;1.13;;
19804;SDS011;10062;51.052;13.756;2023-08-07T11:03:54;3.90;;;1.70;;
19804;SDS011;10062;51.052;13.756;2023-08-07T11:06:28;3.20;;;1.90;;
19804;SDS011;10062;51.052;13.756;2023-08-07T11:09:02;3.90;;;1.00;;
19804;SDS011;10062;51.052;13.756;2023-08-07T11:11:34;2.10;;;1.00;;
19804;SDS011;10062;51.052;13.756;2023-08-07T11:14:10;2.27;;;1.03;;
19804;SDS011;10062;51.052;13.756;2023-08-07T11:16:43;1.80;;;0.90;;
19804;SDS011;10062;51.052;13.756;2023-08-07T11:19:17;1.20;;;0.80;;
19804;SDS011;10062;51.052;13.756;2023-08-07T11:21:49;1.17;;;0.83;;
19804;SDS011;10062;51.052;13.756;2023-08-07T11:24:21;2.80;;;1.10;;
19804;SDS011;10062;51.052;13.756;2023-08-07T11:26:53;1.45;;;0.82;;
19804;SDS011;10062;51.052;13.756;2023-08-07T11:29:27;3.83;;;0.80;;
19804;SDS011;10062;51.052;13.756;2023-08-07T11:32:00;2.77;;;1.40;;
19804;SDS011;10062;51.052;13.756;2023-08-07T11:34:35;4.07;;;1.07;;
19804;SDS011;10062;51.052;13.756;2023-08-07T11:37:06;1.83;;;0.93;;
19804;SDS011;10062;51.052;13.756;2023-08-07T11:39:45;2.43;;;1.17;;
19804;SDS011;10062;51.052;13.756;2023-08-07T11:42:17;1.07;;;0.90;;
19804;SDS011;10062;51.052;13.756;2023-08-07T11:44:52;2.30;;;1.10;;
19804;SDS011;10062;51.052;13.756;2023-08-07T11:47:24;2.50;;;1.30;;
19804;SDS011;10062;51.052;13.756;2023-08-07T11:49:57;5.53;;;1.20;;
19804;SDS011;10062;51.052;13.756;2023-08-07T11:52:29;2.63;;;1.07;;
19804;SDS011;10062;51.052;13.756;2023-08-07T11:55:02;2.97;;;1.20;;
19804;SDS011;10062;51.052;13.756;2023-08-07T11:57:34;3.63;;;1.40;;
19804;SDS011;10062;51.052;13.756;2023-08-07T12:00:09;2.27;;;1.37;;
19804;SDS011;10062;51.052;13.756;2023-08-07T12:02:43;2.73;;;1.80;;
19804;SDS011;10062;51.052;13.756;2023-08-07T12:05:17;3.07;;;1.33;;
19804;SDS011;10062;51.052;13.756;2023-08-07T12:07:48;3.80;;;1.60;;
19804;SDS011;10062;51.052;13.756;2023-08-07T12:10:21;3.57;;;1.20;;
19804;SDS011;10062;51.052;13.756;2023-08-07T12:12:58;2.70;;;1.23;;
19804;SDS011;10062;51.052;13.756;2023-08-07T12:15:32;3.27;;;1.27;;
19804;SDS011;10062;51.052;13.756;2023-08-07T12:18:04;1.83;;;1.00;;
19804;SDS011;10062;51.052;13.756;2023-08-07T12:20:39;2.27;;;1.03;;
19804;SDS011;10062;51.052;13.756;2023-08-07T12:23:13;2.73;;;1.10;;
19804;SDS011;10062;51.052;13.756;2023-08-07T12:25:46;2.27;;;1.23;;
19804;SDS011;10062;51.052;13.756;2023-08-07T12:28:18;1.00;;;0.60;;
19804;SDS011;10062;51.052;13.756;2023-08-07T12:30:50;1.97;;;0.67;;
19804;SDS011;10062;51.052;13.756;2023-08-07T12:33:22;0.87;;;0.67;;
19804;SDS011;10062;51.052;13.756;2023-08-07T12:35:55;1.30;;;0.70;;
19804;SDS011;10062;51.052;13.756;2023-08-07T12:38:27;4.57;;;1.10;;
19804;SDS011;10062;51.052;13.756;2023-08-07T12:41:00;2.03;;;0.97;;
19804;SDS011;10062;51.052;13.756;2023-08-07T12:43:33;1.30;;;0.67;;
19804;SDS011;10062;51.052;13.756;2023-08-07T12:46:05;3.37;;;0.77;;
19804;SDS011;10062;51.052;13.756;2023-08-07T12:48:36;1.67;;;0.90;;
19804;SDS011;10062;51.052;13.756;2023-08-07T12:51:10;4.10;;;0.77;;
19804;SDS011;10062;51.052;13.756;2023-08-07T12:53:42;6.17;;;0.90;;
19804;SDS011;10062;51.052;13.756;2023-08-07T12:56:15;2.97;;;0.80;;
19804;SDS011;10062;51.052;13.756;2023-08-07T12:58:46;4.07;;;0.90;;
19804;SDS011;10062;51.052;13.756;2023-08-07T13:01:20;1.30;;;0.73;;
19804;SDS011;10062;51.052;13.756;2023-08-07T13:03:52;2.27;;;0.70;;
19804;SDS011;10062;51.052;13.756;2023-08-07T13:06:25;5.20;;;1.07;;
19804;SDS011;10062;51.052;13.756;2023-08-07T13:08:57;1.80;;;0.70;;
19804;SDS011;10062;51.052;13.756;2023-08-07T13:11:30;2.10;;;0.80;;
19804;SDS011;10062;51.052;13.756;2023-08-07T13:14:02;1.57;;;1.00;;
19804;SDS011;10062;51.052;13.756;2023-08-07T13:16:34;2.00;;;0.50;;
19804;SDS011;10062;51.052;13.756;2023-08-07T13:19:05;5.23;;;1.00;;
19804;SDS011;10062;51.052;13.756;2023-08-07T13:21:38;2.53;;;0.67;;
19804;SDS011;10062;51.052;13.756;2023-08-07T13:24:10;3.40;;;1.13;;
19804;SDS011;10062;51.052;13.756;2023-08-07T13:26:42;2.77;;;0.60;;
19804;SDS011;10062;51.052;13.756;2023-08-07T13:29:15;2.27;;;0.93;;
19804;SDS011;10062;51.052;13.756;2023-08-07T13:31:46;2.93;;;0.60;;
19804;SDS011;10062;51.052;13.756;2023-08-07T13:34:18;1.67;;;0.90;;
19804;SDS011;10062;51.052;13.756;2023-08-07T13:36:51;1.00;;;0.60;;
19804;SDS011;10062;51.052;13.756;2023-08-07T13:39:23;1.10;;;0.70;;
19804;SDS011;10062;51.052;13.756;2023-08-07T13:41:55;1.47;;;0.63;;
19804;SDS011;10062;51.052;13.756;2023-08-07T13:44:26;3.13;;;0.60;;
19804;SDS011;10062;51.052;13.756;2023-08-07T13:46:58;1.33;;;0.50;;
19804;SDS011;10062;51.052;13.756;2023-08-07T13:49:30;2.90;;;0.80;;
19804;SDS011;10062;51.052;13.756;2023-08-07T13:52:03;0.83;;;0.50;;
19804;SDS011;10062;51.052;13.756;2023-08-07T13:54:36;1.13;;;0.50;;
19804;SDS011;10062;51.052;13.756;2023-08-07T13:57:07;0.63;;;0.40;;
19804;SDS011;10062;51.052;13.756;2023-08-07T13:59:39;6.37;;;0.90;;
19804;SDS011;10062;51.052;13.756;2023-08-07T14:02:11;2.23;;;0.80;;
19804;SDS011;10062;51.052;13.756;2023-08-07T14:04:43;1.07;;;0.50;;
19804;SDS011;10062;51.052;13.756;2023-08-07T14:07:16;1.00;;;0.60;;
19804;SDS011;10062;51.052;13.756;2023-08-07T14:09:48;2.97;;;0.60;;
19804;SDS011;10062;51.052;13.756;2023-08-07T14:12:20;1.23;;;0.80;;
19804;SDS011;10062;51.052;13.756;2023-08-07T14:14:52;3.37;;;1.20;;
19804;SDS011;10062;51.052;13.756;2023-08-07T14:17:24;3.10;;;1.10;;
19804;SDS011;10062;51.052;13.756;2023-08-07T14:19:56;3.13;;;0.80;;
19804;SDS011;10062;51.052;13.756;2023-08-07T14:22:29;1.67;;;0.90;;
19804;SDS011;10062;51.052;13.756;2023-08-07T14:25:01;4.73;;;0.90;;
19804;SDS011;10062;51.052;13.756;2023-08-07T14:27:33;1.67;;;0.80;;
19804;SDS011;10062;51.052;13.756;2023-08-07T14:30:05;0.93;;;0.67;;
19804;SDS011;10062;51.052;13.756;2023-08-07T14:32:38;5.77;;;1.40;;
19804;SDS011;10062;51.052;13.756;2023-08-07T14:35:10;3.07;;;0.80;;
19804;SDS011;10062;51.052;13.756;2023-08-07T14:37:43;2.13;;;0.90;;
19804;SDS011;10062;51.052;13.756;2023-08-07T14:40:17;14.30;;;5.73;;
19804;SDS011;10062;51.052;13.756;2023-08-07T14:42:49;7.77;;;3.83;;
19804;SDS011;10062;51.052;13.756;2023-08-07T14:45:21;2.73;;;1.53;;
19804;SDS011;10062;51.052;13.756;2023-08-07T14:47:54;2.40;;;0.90;;
19804;SDS011;10062;51.052;13.756;2023-08-07T14:50:25;3.20;;;0.90;;
19804;SDS011;10062;51.052;13.756;2023-08-07T14:52:58;4.07;;;0.70;;
19804;SDS011;10062;51.052;13.756;2023-08-07T14:55:30;1.53;;;0.90;;
19804;SDS011;10062;51.052;13.756;2023-08-07T14:58:02;4.07;;;1.13;;
19804;SDS011;10062;51.052;13.756;2023-08-07T15:00:34;2.70;;;0.90;;
19804;SDS011;10062;51.052;13.756;2023-08-07T15:03:06;3.00;;;0.90;;
19804;SDS011;10062;51.052;13.756;2023-08-07T15:05:38;1.17;;;0.80;;